Time;durP1;ratioP1;P1;durP2;ratioP2;P2;SDS_P1;SDS_P2;PMS_P1;PMS_P2;Temp;Humidity;BMP_temperature;BMP_pressure;BME280_temperature;BME280_humidity;BME280_pressure;Samples;Min_cycle;Max_cycle;Signal;HPM_P1;HPM_P2
2021/10/21 00:01:05;;;;;;;8.20;5.90;;;;;;;13.94;50.67;95950.51;115428;1199;27033;-89
2021/10/21 00:03:35;;;;;;;12.30;6.10;;;;;;;13.83;51.05;95948.52;115392;1199;29868;-90
2021/10/21 00:06:03;;;;;;;8.50;4.90;;;;;;;13.75;51.33;95946.47;115421;1198;34043;-89
2021/10/21 00:08:31;;;;;;;8.80;5.70;;;;;;;13.67;51.65;95932.81;115468;1199;27781;-90
2021/10/21 00:10:59;;;;;;;9.90;6.20;;;;;;;13.59;51.89;95919.21;115476;1198;29477;-90
2021/10/21 00:13:27;;;;;;;8.30;6.10;;;;;;;13.49;52.09;95902.41;115468;1199;25873;-91
2021/10/21 00:15:55;;;;;;;10.80;6.20;;;;;;;13.40;52.48;95893.06;115434;1199;28214;-91
2021/10/21 00:18:23;;;;;;;9.00;5.70;;;;;;;13.33;52.77;95890.92;115434;1199;27519;-89
2021/10/21 00:20:51;;;;;;;7.90;5.30;;;;;;;13.25;53.10;95878.87;115500;1198;28788;-90
2021/10/21 00:23:19;;;;;;;10.20;6.30;;;;;;;13.21;53.26;95883.20;115493;1199;27521;-91
2021/10/21 00:25:47;;;;;;;10.30;6.20;;;;;;;13.19;53.35;95880.61;115350;1192;29206;-90
2021/10/21 00:28:15;;;;;;;8.50;6.10;;;;;;;13.16;53.38;95881.84;115314;1192;47665;-88
2021/10/21 00:30:43;;;;;;;8.60;6.50;;;;;;;13.17;53.52;95876.08;115431;1199;27095;-91
2021/10/21 00:33:12;;;;;;;8.10;5.70;;;;;;;13.17;53.64;95869.47;115387;1199;29519;-90
2021/10/21 00:35:40;;;;;;;11.40;6.30;;;;;;;13.15;53.54;95862.40;115509;1199;28107;-92
2021/10/21 00:38:08;;;;;;;7.70;5.60;;;;;;;13.15;53.39;95856.95;115475;1199;31512;-88
2021/10/21 00:40:36;;;;;;;7.40;5.20;;;;;;;13.18;53.41;95864.39;115334;1200;32282;-90
2021/10/21 00:43:04;;;;;;;8.50;5.80;;;;;;;13.21;53.29;95857.91;115478;1184;28959;-90
2021/10/21 00:45:33;;;;;;;7.50;5.50;;;;;;;13.25;53.19;95858.33;115461;1198;30385;-92
2021/10/21 00:48:00;;;;;;;7.00;5.20;;;;;;;13.26;53.09;95853.45;115430;1199;27815;-91
2021/10/21 00:50:29;;;;;;;11.10;6.10;;;;;;;13.25;52.99;95849.60;115428;1198;28631;-91
2021/10/21 00:52:57;;;;;;;9.90;5.90;;;;;;;13.24;53.07;95840.73;115400;1199;28553;-91
2021/10/21 00:55:25;;;;;;;10.00;6.00;;;;;;;13.23;53.01;95838.81;115432;1198;27677;-91
2021/10/21 00:57:54;;;;;;;7.60;5.40;;;;;;;13.22;53.08;95827.66;115483;1199;29281;-91
2021/10/21 01:00:22;;;;;;;8.80;5.60;;;;;;;13.21;53.02;95827.66;115341;1197;35648;-91
2021/10/21 01:02:50;;;;;;;7.70;5.70;;;;;;;13.23;52.95;95823.41;115404;1199;30656;-91
2021/10/21 01:05:18;;;;;;;9.00;5.90;;;;;;;13.20;53.04;95816.88;115353;1199;31197;-91
2021/10/21 01:07:47;;;;;;;8.20;5.40;;;;;;;13.19;53.09;95812.09;115387;1192;30219;-90
2021/10/21 01:10:15;;;;;;;8.60;5.90;;;;;;;13.17;53.20;95800.37;115379;1199;28484;-90
2021/10/21 01:12:43;;;;;;;9.60;6.20;;;;;;;13.16;53.14;95797.96;115456;1198;27631;-91
2021/10/21 01:15:20;;;;;;;8.30;5.60;;;;;;;13.15;53.18;95786.00;115506;1198;25344;-91
2021/10/21 01:17:50;;;;;;;8.00;5.30;;;;;;;13.13;53.21;95783.41;115459;1184;26145;-91
2021/10/21 01:20:18;;;;;;;7.50;5.40;;;;;;;13.13;53.27;95779.36;115453;1184;28812;-91
2021/10/21 01:22:47;;;;;;;7.80;5.40;;;;;;;13.15;53.23;95777.92;115480;1199;30208;-91
2021/10/21 01:25:16;;;;;;;9.50;5.60;;;;;;;13.20;53.07;95775.70;115442;1199;34012;-90
2021/10/21 01:27:46;;;;;;;7.40;5.40;;;;;;;13.24;53.00;95758.03;115359;1199;28661;-91
2021/10/21 01:30:19;;;;;;;8.90;5.10;;;;;;;13.24;52.92;95756.54;115451;1199;36797;-90
2021/10/21 01:32:49;;;;;;;11.40;6.10;;;;;;;13.26;52.80;95755.63;115443;1198;29465;-89
2021/10/21 01:35:17;;;;;;;8.50;5.50;;;;;;;13.29;52.74;95744.34;115371;1198;30715;-91
2021/10/21 01:37:47;;;;;;;7.40;5.00;;;;;;;13.30;52.52;95732.59;115395;1199;36384;-91
2021/10/21 01:40:16;;;;;;;8.30;5.20;;;;;;;13.31;52.42;95726.79;115376;1199;26917;-90
2021/10/21 01:42:45;;;;;;;7.10;5.10;;;;;;;13.30;52.19;95726.08;115389;1199;26695;-91
2021/10/21 01:45:19;;;;;;;8.00;5.80;;;;;;;13.35;52.10;95728.17;115408;1199;26330;-90
2021/10/21 01:47:48;;;;;;;7.80;4.90;;;;;;;13.35;52.01;95726.80;115410;1199;37429;-91
2021/10/21 01:50:17;;;;;;;6.80;4.60;;;;;;;13.36;51.90;95725.39;115425;1199;27648;-89
2021/10/21 01:52:45;;;;;;;6.90;4.50;;;;;;;13.35;51.82;95724.83;115416;1199;43857;-89
2021/10/21 01:55:14;;;;;;;6.10;4.20;;;;;;;13.33;51.63;95728.23;115414;1192;28059;-90
2021/10/21 01:57:43;;;;;;;6.20;4.70;;;;;;;13.34;51.29;95723.80;115416;1199;26469;-90
2021/10/21 02:00:13;;;;;;;8.70;5.10;;;;;;;13.42;50.95;95722.29;115486;1199;26420;-90
2021/10/21 02:02:43;;;;;;;11.80;4.80;;;;;;;13.47;50.91;95724.24;115429;1193;25922;-87
2021/10/21 02:05:12;;;;;;;6.90;5.30;;;;;;;13.48;50.89;95714.77;115385;1199;32056;-88
2021/10/21 02:07:41;;;;;;;7.20;4.50;;;;;;;13.46;50.81;95716.42;115493;1199;25700;-91
2021/10/21 02:10:13;;;;;;;8.20;5.10;;;;;;;13.44;50.87;95719.34;115473;1199;26454;-89
2021/10/21 02:12:41;;;;;;;6.30;4.20;;;;;;;13.42;50.85;95710.27;115598;1192;29272;-90
2021/10/21 02:15:09;;;;;;;6.80;4.90;;;;;;;13.40;50.78;95709.45;115503;1199;38878;-90
2021/10/21 02:17:38;;;;;;;6.70;4.50;;;;;;;13.41;50.65;95710.84;115502;1199;25559;-89
2021/10/21 02:20:09;;;;;;;6.60;3.90;;;;;;;13.44;50.61;95715.05;115321;1199;27018;-90
2021/10/21 02:22:38;;;;;;;6.90;4.70;;;;;;;13.42;50.63;95711.17;115399;1199;26533;-90
2021/10/21 02:25:09;;;;;;;9.20;4.90;;;;;;;13.40;50.61;95714.47;115390;1199;25706;-90
2021/10/21 02:27:39;;;;;;;8.50;4.80;;;;;;;13.36;50.95;95720.08;115519;1198;44847;-91
2021/10/21 02:30:10;;;;;;;7.00;4.60;;;;;;;13.30;50.93;95720.35;115511;1198;27287;-90
2021/10/21 02:32:38;;;;;;;8.90;4.90;;;;;;;13.26;50.97;95714.16;115514;1199;31514;-90
2021/10/21 02:35:09;;;;;;;5.30;4.50;;;;;;;13.22;51.11;95710.59;115472;1198;27180;-91
2021/10/21 02:37:36;;;;;;;;;;;;;;;13.19;51.24;95707.45;115503;1199;27220;-91
2021/10/21 02:40:09;;;;;;;6.10;4.40;;;;;;;13.14;51.35;95705.73;115379;1199;26489;-91
2021/10/21 02:42:37;;;;;;;7.20;4.80;;;;;;;13.09;51.54;95708.17;115488;1199;29329;-92
2021/10/21 02:45:06;;;;;;;7.40;4.70;;;;;;;13.03;51.63;95706.77;115361;1199;27564;-91
2021/10/21 02:47:34;;;;;;;8.00;5.10;;;;;;;12.98;51.78;95703.03;115309;1200;32217;-90
2021/10/21 02:50:03;;;;;;;6.50;4.60;;;;;;;12.94;51.94;95697.67;115392;1199;26236;-91
2021/10/21 02:52:31;;;;;;;7.00;4.70;;;;;;;12.87;52.05;95695.93;115487;1192;26475;-91
2021/10/21 02:54:59;;;;;;;7.90;5.10;;;;;;;12.83;52.18;95687.46;115461;1199;29801;-89
2021/10/21 02:57:28;;;;;;;6.80;4.50;;;;;;;12.79;52.29;95687.05;115448;1199;27492;-90
2021/10/21 02:59:56;;;;;;;9.00;5.30;;;;;;;12.73;52.41;95682.33;115437;1199;28136;-90
2021/10/21 03:02:25;;;;;;;9.00;5.10;;;;;;;12.69;52.41;95678.88;115416;1199;26343;-91
2021/10/21 03:04:53;;;;;;;7.40;5.00;;;;;;;12.64;52.51;95681.45;115377;1199;28992;-89
2021/10/21 03:07:21;;;;;;;8.50;4.80;;;;;;;12.62;52.63;95683.18;115491;1198;27742;-91
2021/10/21 03:09:49;;;;;;;7.50;4.60;;;;;;;12.60;52.73;95676.10;115411;1198;27331;-91
2021/10/21 03:12:17;;;;;;;8.40;4.90;;;;;;;12.58;52.68;95676.43;115390;1199;24562;-90
2021/10/21 03:14:45;;;;;;;7.10;4.60;;;;;;;12.57;52.80;95676.83;115546;1198;27482;-91
2021/10/21 03:17:14;;;;;;;6.60;4.60;;;;;;;12.55;52.91;95676.47;115457;1198;28111;-89
2021/10/21 03:19:42;;;;;;;8.00;5.10;;;;;;;12.52;52.93;95670.38;115408;1194;26413;-88
2021/10/21 03:22:10;;;;;;;8.00;5.20;;;;;;;12.48;53.00;95667.78;115549;1199;26388;-89
2021/10/21 03:24:38;;;;;;;7.80;5.10;;;;;;;12.46;53.11;95664.38;115512;1198;27598;-90
2021/10/21 03:27:06;;;;;;;9.40;5.60;;;;;;;12.46;53.15;95665.98;115450;1199;28444;-91
2021/10/21 03:29:35;;;;;;;9.90;5.10;;;;;;;12.44;53.23;95659.20;115454;1198;29445;-91
2021/10/21 03:32:03;;;;;;;8.00;5.30;;;;;;;12.40;53.41;95650.19;115463;1198;26214;-91
2021/10/21 03:34:33;;;;;;;9.30;5.30;;;;;;;12.35;53.62;95646.77;115458;1198;25300;-91
2021/10/21 03:37:01;;;;;;;7.30;5.10;;;;;;;12.31;53.72;95644.24;115435;1198;27105;-90
2021/10/21 03:39:29;;;;;;;7.20;5.20;;;;;;;12.26;53.92;95644.66;115408;1199;26076;-90
2021/10/21 03:41:57;;;;;;;7.80;5.70;;;;;;;12.24;54.05;95642.91;115411;1199;29954;-89
2021/10/21 03:44:25;;;;;;;7.60;5.30;;;;;;;12.22;54.30;95634.97;115458;1198;34233;-90
2021/10/21 03:46:54;;;;;;;9.90;6.30;;;;;;;12.20;54.41;95628.94;115457;1198;26961;-90
2021/10/21 03:49:22;;;;;;;8.90;6.20;;;;;;;12.17;54.52;95626.27;115460;1198;26332;-91
2021/10/21 03:51:50;;;;;;;8.40;5.40;;;;;;;12.15;54.64;95623.79;115401;1199;27026;-90
2021/10/21 03:54:18;;;;;;;7.30;6.00;;;;;;;12.14;54.97;95609.04;115430;1199;26429;-89
2021/10/21 03:56:46;;;;;;;9.00;6.40;;;;;;;12.17;55.01;95606.75;115414;1199;24994;-90
2021/10/21 03:59:15;;;;;;;9.70;6.00;;;;;;;12.18;55.05;95612.47;115405;1185;25885;-89
2021/10/21 04:01:43;;;;;;;10.90;6.60;;;;;;;12.14;55.40;95603.10;115439;1192;27573;-91
2021/10/21 04:04:11;;;;;;;10.10;6.40;;;;;;;12.10;55.78;95602.46;115488;1198;26859;-91
2021/10/21 04:06:41;;;;;;;11.70;7.00;;;;;;;12.04;56.24;95598.12;115465;1199;30698;-90
2021/10/21 04:09:09;;;;;;;9.30;6.50;;;;;;;11.97;56.70;95587.33;115490;1199;25603;-90
2021/10/21 04:11:37;;;;;;;11.30;7.10;;;;;;;11.88;56.95;95576.77;115492;1199;27135;-91
2021/10/21 04:14:05;;;;;;;10.00;6.80;;;;;;;11.81;57.34;95577.28;115372;1199;27274;-90
2021/10/21 04:16:34;;;;;;;11.60;7.60;;;;;;;11.77;57.62;95575.79;115418;1199;27719;-90
2021/10/21 04:19:02;;;;;;;11.60;8.10;;;;;;;11.75;57.88;95564.06;115402;1199;27098;-90
2021/10/21 04:21:30;;;;;;;10.40;6.70;;;;;;;11.75;58.12;95564.51;115377;1199;31572;-89
2021/10/21 04:23:58;;;;;;;10.10;7.90;;;;;;;11.76;58.25;95561.60;115370;1199;32201;-90
2021/10/21 04:26:26;;;;;;;11.80;7.90;;;;;;;11.76;58.22;95562.38;115462;1198;28643;-91
2021/10/21 04:28:55;;;;;;;11.30;7.30;;;;;;;11.78;58.25;95554.10;115456;1198;28917;-90
2021/10/21 04:31:23;;;;;;;12.90;8.10;;;;;;;11.81;58.25;95548.98;115405;1198;29836;-91
2021/10/21 04:33:51;;;;;;;11.40;7.80;;;;;;;11.85;58.36;95540.28;115448;1198;36438;-91
2021/10/21 04:36:19;;;;;;;12.40;8.00;;;;;;;11.87;58.40;95539.24;115420;1192;27376;-90
2021/10/21 04:38:47;;;;;;;12.30;7.50;;;;;;;11.85;58.55;95541.13;115436;1191;32330;-92
2021/10/21 04:41:16;;;;;;;12.40;8.60;;;;;;;11.80;58.76;95531.95;115344;1199;29598;-91
2021/10/21 04:43:44;;;;;;;12.90;8.80;;;;;;;11.75;58.74;95532.45;115498;1198;29122;-90
2021/10/21 04:46:12;;;;;;;11.60;8.20;;;;;;;11.72;59.01;95522.84;115371;1199;29098;-89
2021/10/21 04:48:41;;;;;;;13.10;8.90;;;;;;;11.68;59.37;95516.27;115323;1193;28511;-90
2021/10/21 04:51:10;;;;;;;14.70;8.70;;;;;;;11.63;59.34;95528.79;115444;1199;27919;-91
2021/10/21 04:53:38;;;;;;;13.00;8.10;;;;;;;11.61;59.46;95525.88;115443;1199;26186;-91
2021/10/21 04:56:08;;;;;;;12.30;8.80;;;;;;;11.59;59.69;95512.90;115373;1199;28257;-90
2021/10/21 04:58:39;;;;;;;14.60;9.30;;;;;;;11.55;59.88;95509.98;115368;1199;28983;-90
2021/10/21 05:01:09;;;;;;;11.50;8.40;;;;;;;11.50;59.98;95502.16;115460;1199;27787;-90
2021/10/21 05:03:37;;;;;;;14.80;9.50;;;;;;;11.47;60.20;95501.44;115354;1192;26340;-90
2021/10/21 05:06:05;;;;;;;16.20;9.90;;;;;;;11.46;60.45;95497.45;115402;1198;28655;-91
2021/10/21 05:08:33;;;;;;;12.10;9.80;;;;;;;11.44;60.56;95489.74;115332;1199;28087;-90
2021/10/21 05:11:01;;;;;;;14.90;9.20;;;;;;;11.43;60.51;95488.09;115349;1193;41748;-90
2021/10/21 05:13:29;;;;;;;12.20;9.10;;;;;;;11.43;60.52;95486.02;115362;1199;31406;-91
2021/10/21 05:15:57;;;;;;;13.20;9.50;;;;;;;11.49;60.55;95487.49;115357;1199;30460;-91
2021/10/21 05:18:26;;;;;;;11.50;9.60;;;;;;;11.52;60.57;95483.99;115381;1199;26975;-91
2021/10/21 05:20:54;;;;;;;15.70;10.50;;;;;;;11.49;60.82;95483.40;115412;1198;28965;-92
2021/10/21 05:23:22;;;;;;;12.70;8.90;;;;;;;11.44;60.93;95475.00;115267;1199;25527;-91
2021/10/21 05:25:50;;;;;;;14.50;9.60;;;;;;;11.40;61.24;95472.40;115365;1199;27251;-91
2021/10/21 05:28:19;;;;;;;13.40;8.60;;;;;;;11.38;61.55;95473.52;115495;1193;25381;-91
2021/10/21 05:30:47;;;;;;;14.50;10.00;;;;;;;11.39;61.60;95474.67;115454;1198;26374;-90
2021/10/21 05:33:15;;;;;;;12.90;9.80;;;;;;;11.40;61.69;95477.86;115260;1199;28513;-92
2021/10/21 05:35:43;;;;;;;16.00;9.60;;;;;;;11.42;61.74;95480.97;115509;1198;26113;-89
2021/10/21 05:38:12;;;;;;;12.10;10.20;;;;;;;11.43;61.93;95490.65;115325;1200;27127;-92
2021/10/21 05:40:40;;;;;;;14.30;9.90;;;;;;;11.44;62.03;95486.59;115387;1192;29355;-91
2021/10/21 05:43:08;;;;;;;14.20;10.20;;;;;;;11.44;61.98;95485.38;115560;1198;26090;-91
2021/10/21 05:45:36;;;;;;;13.80;10.60;;;;;;;11.45;62.06;95472.41;115402;1198;28128;-91
2021/10/21 05:48:04;;;;;;;15.40;10.40;;;;;;;11.48;62.17;95482.14;115452;1192;29893;-91
2021/10/21 05:50:33;;;;;;;15.80;11.30;;;;;;;11.47;62.22;95479.84;115464;1198;28314;-92
2021/10/21 05:53:01;;;;;;;16.40;11.10;;;;;;;11.48;62.32;95474.25;115382;1199;30126;-91
2021/10/21 05:55:29;;;;;;;17.00;11.60;;;;;;;11.46;62.51;95473.88;115343;1199;31052;-90
2021/10/21 05:57:57;;;;;;;15.00;10.60;;;;;;;11.48;62.67;95474.25;115404;1192;26939;-91
2021/10/21 06:00:26;;;;;;;14.20;10.90;;;;;;;11.58;62.66;95459.64;115399;1199;25604;-90
2021/10/21 06:02:54;;;;;;;17.20;11.10;;;;;;;12.02;62.54;95453.58;115431;1199;27404;-91
2021/10/21 06:05:23;;;;;;;15.50;10.70;;;;;;;12.37;61.44;95454.80;115436;1199;27131;-92
2021/10/21 06:07:51;;;;;;;15.20;11.00;;;;;;;12.48;60.97;95457.79;115404;1197;30037;-90
2021/10/21 06:10:19;;;;;;;15.50;10.20;;;;;;;12.73;60.43;95457.48;115457;1199;36298;-90
2021/10/21 06:12:50;;;;;;;14.10;9.20;;;;;;;13.05;59.91;95471.60;115443;1199;25681;-90
2021/10/21 06:15:19;;;;;;;15.50;11.00;;;;;;;13.39;58.97;95474.73;115467;1198;29541;-91
2021/10/21 06:17:48;;;;;;;14.30;10.40;;;;;;;13.74;58.60;95477.16;115368;1194;30188;-92
2021/10/21 06:20:16;;;;;;;13.40;10.90;;;;;;;14.46;57.63;95472.61;115245;1199;29756;-90
2021/10/21 06:22:44;;;;;;;15.70;11.40;;;;;;;15.12;56.11;95469.47;115377;1192;31316;-89
2021/10/21 06:25:13;;;;;;;13.00;9.50;;;;;;;15.63;54.76;95470.19;115340;1199;37419;-91
2021/10/21 06:27:41;;;;;;;18.00;11.00;;;;;;;15.85;53.81;95462.95;115443;1199;28869;-91
2021/10/21 06:30:10;;;;;;;14.80;10.30;;;;;;;15.85;53.13;95471.36;115526;1199;27065;-90
2021/10/21 06:32:39;;;;;;;14.30;10.10;;;;;;;16.02;52.68;95459.91;115393;1199;28298;-89
2021/10/21 06:35:08;;;;;;;13.80;10.70;;;;;;;16.35;51.97;95454.66;115413;1199;29315;-90
2021/10/21 06:37:37;;;;;;;12.80;10.50;;;;;;;16.81;51.61;95456.20;115244;1195;27873;-92
2021/10/21 06:40:07;;;;;;;16.00;9.60;;;;;;;17.30;50.59;95453.23;115230;1200;28101;-90
2021/10/21 06:42:35;;;;;;;13.40;9.70;;;;;;;17.69;49.53;95448.41;115263;1186;28484;-91
2021/10/21 06:45:05;;;;;;;12.80;9.20;;;;;;;17.76;48.44;95445.92;115425;1199;29086;-91
2021/10/21 06:47:34;;;;;;;12.70;9.40;;;;;;;17.77;47.92;95437.66;115319;1199;30594;-91
2021/10/21 06:50:02;;;;;;;14.90;9.60;;;;;;;17.84;47.81;95442.74;115224;1200;29719;-91
2021/10/21 06:52:30;;;;;;;13.60;9.90;;;;;;;17.51;47.38;95438.23;115299;1199;32416;-90
2021/10/21 06:54:58;;;;;;;13.90;10.50;;;;;;;16.82;48.21;95437.05;115502;1198;27694;-90
2021/10/21 06:57:26;;;;;;;14.20;10.30;;;;;;;16.47;48.49;95438.22;115509;1195;29050;-89
2021/10/21 06:59:54;;;;;;;13.30;9.90;;;;;;;15.87;49.38;95446.21;115468;1199;37044;-91
2021/10/21 07:02:22;;;;;;;15.40;10.70;;;;;;;15.68;50.03;95441.23;115228;1199;27877;-89
2021/10/21 07:04:51;;;;;;;16.30;10.40;;;;;;;15.15;50.64;95434.02;115390;1199;39040;-89
2021/10/21 07:07:19;;;;;;;13.50;10.30;;;;;;;14.68;51.58;95440.10;115470;1199;27671;-89
2021/10/21 07:09:47;;;;;;;15.10;9.80;;;;;;;14.40;52.41;95430.04;115341;1199;26207;-89
2021/10/21 07:12:15;;;;;;;14.10;10.00;;;;;;;14.07;53.23;95432.35;115273;1199;31074;-90
2021/10/21 07:14:44;;;;;;;12.40;9.50;;;;;;;13.77;54.15;95427.90;115332;1194;25133;-90
2021/10/21 07:17:12;;;;;;;15.50;10.20;;;;;;;13.51;54.90;95424.98;115540;1198;25480;-89
2021/10/21 07:19:40;;;;;;;15.90;10.60;;;;;;;13.33;55.66;95410.02;115444;1193;29076;-90
2021/10/21 07:22:08;;;;;;;14.80;10.00;;;;;;;13.18;56.19;95425.27;115505;1199;26124;-88
2021/10/21 07:24:36;;;;;;;12.70;9.20;;;;;;;13.04;56.71;95415.07;115471;1198;26300;-90
2021/10/21 07:27:05;;;;;;;14.30;10.60;;;;;;;12.98;57.29;95405.42;115456;1198;24105;-89
2021/10/21 07:29:33;;;;;;;14.60;9.90;;;;;;;13.46;57.61;95402.05;115450;1199;29839;-90
2021/10/21 07:32:01;;;;;;;15.90;9.00;;;;;;;14.39;56.38;95397.55;115347;1199;31280;-89
2021/10/21 07:34:29;;;;;;;13.10;9.70;;;;;;;15.02;54.87;95400.84;115346;1198;31374;-88
2021/10/21 07:36:58;;;;;;;13.50;9.80;;;;;;;15.41;54.08;95393.30;115345;1199;34543;-91
2021/10/21 07:39:26;;;;;;;13.70;9.60;;;;;;;15.77;53.11;95393.84;115357;1199;28235;-90
2021/10/21 07:41:59;;;;;;;14.50;9.50;;;;;;;15.92;52.27;95397.61;115435;1184;28173;-90
2021/10/21 07:44:28;;;;;;;14.50;9.90;;;;;;;15.98;52.07;95399.70;115460;1199;27508;-87
2021/10/21 07:46:56;;;;;;;13.90;9.70;;;;;;;16.13;51.93;95382.42;115425;1199;25860;-89
2021/10/21 07:49:24;;;;;;;14.30;10.00;;;;;;;16.15;51.39;95387.45;115421;1184;26128;-89
2021/10/21 07:51:52;;;;;;;13.90;9.30;;;;;;;16.14;51.22;95380.23;115509;1199;27932;-89
2021/10/21 07:54:23;;;;;;;13.90;10.00;;;;;;;16.12;51.43;95371.33;115415;1199;36385;-89
2021/10/21 07:56:52;;;;;;;12.70;9.90;;;;;;;16.26;51.57;95358.70;115287;1199;26869;-90
2021/10/21 07:59:21;;;;;;;14.80;10.30;;;;;;;16.33;51.18;95352.77;115517;1198;29279;-90
2021/10/21 08:01:49;;;;;;;16.40;10.30;;;;;;;16.39;51.38;95364.67;115359;1199;27242;-89
2021/10/21 08:04:17;;;;;;;14.80;10.00;;;;;;;16.45;51.15;95367.64;115536;1198;28919;-89
2021/10/21 08:06:46;;;;;;;14.20;10.60;;;;;;;16.41;51.04;95367.84;115491;1198;25629;-89
2021/10/21 08:09:15;;;;;;;14.40;9.90;;;;;;;16.40;51.36;95364.70;115399;1199;26007;-89
2021/10/21 08:11:43;;;;;;;15.50;9.80;;;;;;;16.50;51.55;95370.30;115514;1198;29128;-90
2021/10/21 08:14:11;;;;;;;14.10;9.60;;;;;;;16.58;51.56;95362.21;115644;1198;25777;-90
2021/10/21 08:16:39;;;;;;;14.20;9.60;;;;;;;16.61;51.41;95355.66;115563;1198;24256;-88
2021/10/21 08:19:07;;;;;;;14.40;9.80;;;;;;;16.62;51.43;95347.02;115221;1193;27161;-88
2021/10/21 08:21:36;;;;;;;14.70;9.90;;;;;;;16.63;51.11;95347.29;115565;1193;27445;-89
2021/10/21 08:24:05;;;;;;;11.40;9.00;;;;;;;16.56;50.82;95336.95;115464;1199;26770;-90
2021/10/21 08:26:33;;;;;;;15.10;9.60;;;;;;;16.47;51.17;95334.30;115460;1196;25050;-90
2021/10/21 08:29:03;;;;;;;11.60;8.40;;;;;;;16.47;51.18;95329.10;115482;1198;28783;-90
2021/10/21 08:31:31;;;;;;;15.10;9.30;;;;;;;16.46;51.25;95319.27;115436;1198;28266;-89
2021/10/21 08:33:59;;;;;;;13.40;8.70;;;;;;;16.43;51.66;95320.59;115468;1193;25992;-90
2021/10/21 08:36:28;;;;;;;14.10;9.00;;;;;;;16.46;51.64;95324.71;115349;1199;27457;-90
2021/10/21 08:38:57;;;;;;;14.10;9.40;;;;;;;16.52;51.64;95320.58;115393;1199;26805;-90
2021/10/21 08:41:25;;;;;;;12.80;8.70;;;;;;;16.47;51.44;95325.04;115390;1199;26606;-90
2021/10/21 08:43:54;;;;;;;16.00;10.00;;;;;;;16.42;51.45;95308.56;115413;1199;26383;-89
2021/10/21 08:46:24;;;;;;;15.40;10.00;;;;;;;16.36;51.66;95296.58;115374;1199;28336;-91
2021/10/21 08:48:56;;;;;;;14.70;10.40;;;;;;;16.25;51.83;95304.81;115394;1193;30055;-90
2021/10/21 08:51:24;;;;;;;13.30;10.10;;;;;;;16.25;52.31;95319.02;115470;1199;29044;-90
2021/10/21 08:53:52;;;;;;;14.60;9.50;;;;;;;16.29;52.19;95317.19;115384;1199;27412;-89
2021/10/21 08:56:24;;;;;;;13.50;9.50;;;;;;;16.31;52.38;95309.38;115353;1199;28955;-89
2021/10/21 08:58:54;;;;;;;13.30;9.60;;;;;;;16.37;52.37;95301.27;115420;1199;26521;-88
2021/10/21 09:01:31;;;;;;;12.90;8.90;;;;;;;16.42;52.05;95296.49;115539;1198;27170;-89
2021/10/21 09:04:17;;;;;;;11.60;8.00;;;;;;;16.44;51.89;95291.73;115381;1199;26006;-88
2021/10/21 09:07:55;;;;;;;9.80;6.80;;;;;;;16.48;51.82;95290.83;115434;1199;26689;-89
2021/10/21 09:09:46;;;;;;;12.80;7.20;;;;;;;16.58;50.86;95277.74;115460;1193;25555;-89
2021/10/21 09:12:18;;;;;;;10.60;7.30;;;;;;;16.68;50.24;95282.10;115078;1200;42705;-89
2021/10/21 09:14:49;;;;;;;11.20;7.10;;;;;;;16.73;49.83;95272.44;115344;1194;28895;-90
2021/10/21 09:17:20;;;;;;;10.70;7.60;;;;;;;16.73;49.70;95267.98;115445;1198;27118;-90
2021/10/21 09:19:49;;;;;;;10.10;6.50;;;;;;;16.78;49.48;95275.30;115524;1198;26744;-88
2021/10/21 09:22:23;;;;;;;12.00;7.50;;;;;;;16.80;48.98;95257.68;115515;1199;26048;-89
2021/10/21 09:24:53;;;;;;;11.90;6.90;;;;;;;16.86;48.88;95282.50;115428;1193;26055;-88
2021/10/21 09:27:24;;;;;;;;;;;;;;;16.91;48.93;95281.17;115447;1193;26165;-89
2021/10/21 09:29:54;;;;;;;9.20;5.90;;;;;;;16.96;48.81;95290.36;115394;1193;26198;-89
2021/10/21 09:32:27;;;;;;;10.60;6.80;;;;;;;17.00;49.18;95303.08;115428;1199;29190;-89
2021/10/21 09:34:57;;;;;;;9.60;5.60;;;;;;;17.11;49.00;95308.80;115427;1193;28897;-91
2021/10/21 09:37:28;;;;;;;9.30;6.10;;;;;;;17.19;49.00;95314.95;115358;1184;25871;-89
2021/10/21 09:39:57;;;;;;;9.60;5.50;;;;;;;17.35;49.50;95310.51;115417;1199;25448;-89
2021/10/21 09:42:31;;;;;;;8.40;5.50;;;;;;;17.41;48.94;95325.77;115417;1193;27728;-90
2021/10/21 09:45:14;;;;;;;10.60;5.50;;;;;;;17.38;49.59;95337.38;115382;1199;25491;-89
2021/10/21 09:47:45;;;;;;;9.60;6.10;;;;;;;17.21;49.75;95302.66;115504;1199;23384;-89
2021/10/21 09:50:19;;;;;;;;;;;;;;;17.02;50.35;95327.96;115501;1199;26762;-90
2021/10/21 09:53:10;;;;;;;8.50;5.00;;;;;;;16.88;50.67;95303.05;115248;1199;25862;-89
2021/10/21 09:55:40;;;;;;;7.60;4.70;;;;;;;16.72;50.85;95329.23;115431;1193;25388;-89
2021/10/21 09:58:10;;;;;;;6.70;5.00;;;;;;;16.67;51.11;95348.52;115439;1193;25514;-89
2021/10/21 10:00:41;;;;;;;8.70;5.10;;;;;;;16.66;51.29;95357.59;115505;1199;27900;-89
2021/10/21 10:03:17;;;;;;;7.80;4.60;;;;;;;16.74;50.97;95380.27;115181;1200;27392;-88
2021/10/21 10:05:47;;;;;;;7.90;5.00;;;;;;;16.82;50.94;95373.59;115551;1199;27749;-89
2021/10/21 10:08:17;;;;;;;9.00;5.10;;;;;;;16.92;50.83;95352.56;115231;1199;27638;-88
2021/10/21 10:10:48;;;;;;;8.50;5.10;;;;;;;17.05;50.71;95363.52;115343;1199;34350;-89
2021/10/21 10:13:17;;;;;;;8.50;4.80;;;;;;;17.13;49.62;95371.81;115164;1200;27253;-89
2021/10/21 10:15:47;;;;;;;6.30;4.90;;;;;;;17.14;49.88;95380.71;115387;1199;28427;-89
2021/10/21 10:18:18;;;;;;;7.40;4.50;;;;;;;17.24;50.05;95383.45;115434;1199;26167;-88
2021/10/21 10:20:52;;;;;;;6.30;4.80;;;;;;;17.32;49.89;95383.70;115502;1199;26593;-88
2021/10/21 10:23:22;;;;;;;7.30;4.80;;;;;;;17.36;50.24;95381.20;115433;1199;26280;-88
2021/10/21 10:25:52;;;;;;;7.70;4.70;;;;;;;17.41;49.89;95389.40;115489;1199;26848;-89
2021/10/21 10:28:20;;;;;;;;;;;;;;;17.49;49.79;95388.96;115543;1199;45836;-89
2021/10/21 10:30:50;;;;;;;8.20;5.30;;;;;;;17.37;50.18;95390.39;115571;1199;26213;-89
2021/10/21 10:33:42;;;;;;;7.20;4.70;;;;;;;17.09;50.50;95387.56;115525;1193;28512;-89
2021/10/21 10:36:32;;;;;;;6.20;4.70;;;;;;;16.86;50.92;95393.88;115467;1198;26351;-89
2021/10/21 10:39:02;;;;;;;6.00;4.10;;;;;;;16.82;51.33;95405.16;115425;1199;31254;-89
2021/10/21 10:42:00;;;;;;;7.70;4.80;;;;;;;16.75;51.86;95402.25;115446;1199;29194;-88
2021/10/21 10:45:03;;;;;;;9.40;5.60;;;;;;;16.61;52.17;95409.77;115330;1199;45438;-89
2021/10/21 10:47:48;;;;;;;8.80;6.10;;;;;;;16.51;52.76;95419.85;115445;1193;26350;-89
2021/10/21 10:50:39;;;;;;;8.10;5.40;;;;;;;16.47;53.04;95415.02;115488;1199;25826;-89
2021/10/21 10:53:09;;;;;;;8.00;5.30;;;;;;;16.51;53.37;95409.68;115414;1199;25455;-89
2021/10/21 10:55:42;;;;;;;7.40;5.20;;;;;;;16.48;53.31;95395.52;115553;1198;28335;-89
2021/10/21 10:58:15;;;;;;;8.30;5.20;;;;;;;16.39;53.36;95402.96;115495;1199;26074;-88
2021/10/21 11:00:51;;;;;;;8.40;5.10;;;;;;;16.34;53.71;95387.09;115391;1199;32812;-85
2021/10/21 11:03:33;;;;;;;7.50;4.80;;;;;;;16.29;54.22;95399.79;115452;1199;26216;-89
2021/10/21 11:06:03;;;;;;;7.50;5.30;;;;;;;16.27;54.21;95406.85;115364;1193;25802;-90
2021/10/21 11:08:51;;;;;;;8.70;4.50;;;;;;;16.27;53.83;95421.91;115389;1199;27118;-86
2021/10/21 11:11:41;;;;;;;9.40;4.30;;;;;;;16.22;54.02;95411.41;115377;1198;28799;-89
2021/10/21 11:14:11;;;;;;;8.10;4.50;;;;;;;16.17;54.17;95431.80;115447;1199;25905;-88
2021/10/21 11:16:44;;;;;;;8.20;4.50;;;;;;;16.16;54.24;95462.63;115690;1198;23511;-88
2021/10/21 11:19:14;;;;;;;7.80;4.00;;;;;;;16.10;54.23;95459.75;115637;1199;25544;-88
2021/10/21 11:21:53;;;;;;;6.30;3.80;;;;;;;16.00;54.58;95487.05;115615;1198;27283;-89
2021/10/21 11:24:59;;;;;;;6.90;3.90;;;;;;;15.92;54.70;95503.79;115445;1199;30577;-88
2021/10/21 11:27:29;;;;;;;5.40;3.80;;;;;;;15.85;55.10;95515.03;115489;1199;25994;-88
2021/10/21 11:30:04;;;;;;;5.70;3.60;;;;;;;15.82;55.16;95508.07;115416;1199;27459;-89
2021/10/21 11:32:35;;;;;;;5.50;3.40;;;;;;;15.75;55.23;95499.09;115429;1199;29208;-89
2021/10/21 11:35:08;;;;;;;5.70;3.30;;;;;;;15.68;55.37;95498.06;115457;1194;25869;-89